createdAt,value
2022-11-09T00:01:43.080Z,8.08
2022-11-09T00:04:12.605Z,8.14
2022-11-09T00:06:41.526Z,8.14
2022-11-09T00:09:11.803Z,8.08
2022-11-09T00:11:40.518Z,8.07
2022-11-09T00:14:15.936Z,8.09
2022-11-09T00:16:45.331Z,8.08
2022-11-09T00:19:14.353Z,8.14
2022-11-09T00:21:43.090Z,8.09
2022-11-09T00:24:14.786Z,8.13
2022-11-09T00:26:43.653Z,8.10
2022-11-09T00:29:12.609Z,8.13
2022-11-09T00:31:43.374Z,8.05
2022-11-09T00:34:12.087Z,8.07
2022-11-09T00:36:43.865Z,8.07
2022-11-09T00:39:13.895Z,7.97
2022-11-09T00:41:42.584Z,8.10
2022-11-09T00:44:11.715Z,8.05
2022-11-09T00:46:40.743Z,8.09
2022-11-09T00:49:09.505Z,8.03
2022-11-09T00:51:38.212Z,8.11
2022-11-09T00:54:08.312Z,8.07
2022-11-09T00:56:38.941Z,8.15
2022-11-09T00:59:08.067Z,8.06
2022-11-09T01:01:36.785Z,8.10
2022-11-09T01:04:07.025Z,8.10
2022-11-09T01:06:37.019Z,8.07
2022-11-09T01:09:05.908Z,8.07
2022-11-09T01:11:34.595Z,8.03
2022-11-09T01:14:04.744Z,8.06
2022-11-09T01:16:33.732Z,8.16
2022-11-09T01:19:02.933Z,8.16
2022-11-09T01:21:31.954Z,8.16
2022-11-09T01:24:02.218Z,8.17
2022-11-09T01:26:32.669Z,8.21
2022-11-09T01:29:01.369Z,8.26
2022-11-09T01:31:31.547Z,8.21
2022-11-09T01:34:02.316Z,8.20
2022-11-09T01:36:31.213Z,8.18
2022-11-09T01:39:02.423Z,8.26
2022-11-09T01:41:31.417Z,8.23
2022-11-09T01:44:13.011Z,8.17
2022-11-09T01:46:51.964Z,8.06
2022-11-09T01:49:41.874Z,8.10
2022-11-09T01:52:17.990Z,8.09
2022-11-09T01:54:52.656Z,7.99
2022-11-09T01:57:26.149Z,8.07
2022-11-09T02:00:02.031Z,8.03
2022-11-09T02:02:34.907Z,8.03
2022-11-09T02:05:11.925Z,8.03
2022-11-09T02:07:42.458Z,7.95
2022-11-09T02:10:20.875Z,8.01
2022-11-09T02:12:51.530Z,8.00
2022-11-09T02:15:20.749Z,8.03
2022-11-09T02:17:55.499Z,8.00
2022-11-09T02:20:26.647Z,8.08
2022-11-09T02:22:55.825Z,7.97
2022-11-09T02:25:24.634Z,8.06
2022-11-09T02:27:53.749Z,8.01
2022-11-09T02:30:24.338Z,7.99
2022-11-09T02:32:57.459Z,8.01
2022-11-09T02:35:27.701Z,7.98
2022-11-09T02:37:56.912Z,7.94
2022-11-09T02:40:34.039Z,7.93
2022-11-09T02:43:03.480Z,7.96
2022-11-09T02:45:34.095Z,7.98
2022-11-09T02:48:03.228Z,7.96
2022-11-09T02:50:33.481Z,7.97
2022-11-09T02:53:02.080Z,8.01
2022-11-09T02:55:31.203Z,8.00
2022-11-09T02:58:00.719Z,8.02
2022-11-09T03:00:29.685Z,8.06
2022-11-09T03:02:58.834Z,8.03
2022-11-09T03:05:28.078Z,8.07
2022-11-09T03:08:02.473Z,7.98
2022-11-09T03:10:34.139Z,8.08
2022-11-09T03:13:03.909Z,8.01
2022-11-09T03:15:32.707Z,8.00
2022-11-09T03:18:01.708Z,8.01
2022-11-09T03:20:30.782Z,8.06
2022-11-09T03:23:02.047Z,8.07
2022-11-09T03:25:32.959Z,8.02
2022-11-09T03:28:05.341Z,8.01
2022-11-09T03:30:34.625Z,7.98
2022-11-09T03:33:10.071Z,7.93
2022-11-09T03:35:40.027Z,7.98
2022-11-09T03:38:11.119Z,7.98
2022-11-09T03:40:40.750Z,7.94
2022-11-09T03:43:10.167Z,7.98
2022-11-09T03:45:40.732Z,7.91
2022-11-09T03:48:11.286Z,7.94
2022-11-09T03:50:42.641Z,7.91
2022-11-09T03:53:14.427Z,7.92
2022-11-09T03:55:43.341Z,7.88
2022-11-09T03:58:13.770Z,7.83
2022-11-09T04:00:43.548Z,7.87
2022-11-09T04:03:16.175Z,7.88
2022-11-09T04:05:45.357Z,7.91
2022-11-09T04:08:15.518Z,7.92
2022-11-09T04:10:44.242Z,7.94
2022-11-09T04:13:13.063Z,7.89
2022-11-09T04:15:42.175Z,7.94
2022-11-09T04:18:16.321Z,7.94
2022-11-09T04:20:48.690Z,7.97
2022-11-09T04:23:20.893Z,8.02
2022-11-09T04:25:50.488Z,7.94
2022-11-09T04:28:22.653Z,7.91
2022-11-09T04:30:52.049Z,7.90
2022-11-09T04:33:21.171Z,7.90
2022-11-09T04:35:50.664Z,7.92
2022-11-09T04:38:22.162Z,7.91
2022-11-09T04:40:51.867Z,7.86
2022-11-09T04:43:23.019Z,7.87
2022-11-09T04:45:53.300Z,7.86
2022-11-09T04:48:24.074Z,7.85
2022-11-09T04:51:00.559Z,7.85
2022-11-09T04:53:39.485Z,7.89
2022-11-09T04:56:18.824Z,7.84
2022-11-09T04:58:47.885Z,7.87
2022-11-09T05:01:29.797Z,7.90
2022-11-09T05:03:59.355Z,7.83
2022-11-09T05:06:51.199Z,7.85
2022-11-09T05:09:28.540Z,7.83
2022-11-09T05:12:02.910Z,7.85
2022-11-09T05:14:32.913Z,7.77
2022-11-09T05:17:02.468Z,7.78
2022-11-09T05:19:31.765Z,7.77
2022-11-09T05:22:23.057Z,7.76
2022-11-09T05:24:53.816Z,7.87
2022-11-09T05:27:29.292Z,7.82
2022-11-09T05:30:01.875Z,7.73
2022-11-09T05:32:35.001Z,7.82
2022-11-09T05:35:08.285Z,7.85
2022-11-09T05:37:42.029Z,7.75
2022-11-09T05:40:14.986Z,7.83
2022-11-09T05:42:44.915Z,7.73
2022-11-09T05:48:08.012Z,7.75
2022-11-09T05:50:37.107Z,7.77
2022-11-09T05:53:33.502Z,7.70
2022-11-09T05:56:11.277Z,7.82
2022-11-09T05:58:42.420Z,7.75
2022-11-09T06:01:18.854Z,7.73
2022-11-09T06:03:53.796Z,7.80
2022-11-09T06:06:25.890Z,7.84
2022-11-09T06:08:56.344Z,7.82
2022-11-09T06:11:26.710Z,7.85
2022-11-09T06:13:59.911Z,7.82
2022-11-09T06:16:28.914Z,7.84
2022-11-09T06:19:00.020Z,7.98
2022-11-09T06:21:31.427Z,7.89
2022-11-09T06:24:07.855Z,7.89
2022-11-09T06:26:43.730Z,7.99
2022-11-09T06:29:12.552Z,7.91
2022-11-09T06:31:41.880Z,7.96
2022-11-09T06:34:11.587Z,7.91
2022-11-09T06:36:42.814Z,7.93
2022-11-09T06:39:14.021Z,7.94
2022-11-09T06:41:47.618Z,8.01
2022-11-09T06:44:21.962Z,7.98
2022-11-09T06:46:51.111Z,8.10
2022-11-09T06:49:20.298Z,7.98
2022-11-09T06:51:52.797Z,8.02
2022-11-09T06:54:24.375Z,8.07
2022-11-09T06:57:15.718Z,8.11
2022-11-09T06:59:55.491Z,8.13
2022-11-09T07:02:30.850Z,8.16
2022-11-09T07:05:13.383Z,8.17
2022-11-09T07:07:45.323Z,8.21
2022-11-09T07:10:17.084Z,8.24
2022-11-09T07:12:48.507Z,8.21
2022-11-09T07:15:22.770Z,8.30
2022-11-09T07:17:54.024Z,8.33
2022-11-09T07:20:23.263Z,8.33
2022-11-09T07:22:54.829Z,8.30
2022-11-09T07:25:29.589Z,8.35
2022-11-09T07:28:07.715Z,8.33
2022-11-09T07:30:37.862Z,8.42
2022-11-09T07:33:14.970Z,8.42
2022-11-09T07:35:44.299Z,8.42
2022-11-09T07:38:16.918Z,8.41
2022-11-09T07:40:46.636Z,8.47
2022-11-09T07:43:18.779Z,8.47
2022-11-09T07:45:54.050Z,8.53
2022-11-09T07:48:30.873Z,8.65
2022-11-09T07:51:05.932Z,8.66
2022-11-09T07:53:37.942Z,8.68
2022-11-09T07:56:10.868Z,8.75
2022-11-09T07:58:44.391Z,8.79
2022-11-09T08:01:15.405Z,8.73
2022-11-09T08:03:57.048Z,8.75
2022-11-09T08:06:34.538Z,8.83
2022-11-09T08:09:09.140Z,8.83
2022-11-09T08:11:39.214Z,8.87
2022-11-09T08:14:09.639Z,8.90
2022-11-09T08:16:45.235Z,8.92
2022-11-09T08:19:15.891Z,8.87
2022-11-09T08:21:50.671Z,8.97
2022-11-09T08:24:19.763Z,9.06
2022-11-09T08:26:50.477Z,9.10
2022-11-09T08:29:20.660Z,9.10
2022-11-09T08:31:56.315Z,9.19
2022-11-09T08:34:29.749Z,9.21
2022-11-09T08:37:02.363Z,9.29
2022-11-09T08:39:31.267Z,9.31
2022-11-09T08:42:03.759Z,9.41
2022-11-09T08:44:35.100Z,9.41
2022-11-09T08:47:09.068Z,9.48
2022-11-09T08:49:49.298Z,9.58
2022-11-09T08:52:19.595Z,9.61
2022-11-09T08:54:53.017Z,9.66
2022-11-09T08:57:24.850Z,9.73
2022-11-09T08:59:57.987Z,9.71
2022-11-09T09:02:26.819Z,9.75
2022-11-09T09:04:56.071Z,9.80
2022-11-09T09:07:29.488Z,9.87
2022-11-09T09:09:58.863Z,9.97
2022-11-09T09:12:31.028Z,10.06
2022-11-09T09:15:07.492Z,10.13
2022-11-09T09:17:41.900Z,10.13
2022-11-09T09:20:14.231Z,10.17
2022-11-09T09:22:43.669Z,10.25
2022-11-09T09:25:12.883Z,10.26
2022-11-09T09:27:47.893Z,10.36
2022-11-09T09:30:22.313Z,10.40
2022-11-09T09:32:51.641Z,10.44
2022-11-09T09:35:20.578Z,10.50
2022-11-09T09:37:50.008Z,10.50
2022-11-09T09:40:26.817Z,10.61
2022-11-09T09:42:58.566Z,10.60
2022-11-09T09:45:33.936Z,10.61
2022-11-09T09:48:25.175Z,10.64
2022-11-09T09:51:20.099Z,10.69
2022-11-09T09:53:58.004Z,10.70
2022-11-09T09:56:32.642Z,10.80
2022-11-09T09:59:12.186Z,10.84
2022-11-09T10:01:45.092Z,10.92
2022-11-09T10:04:21.311Z,10.96
2022-11-09T10:07:08.643Z,11.04
2022-11-09T10:09:58.630Z,11.04
2022-11-09T10:12:40.032Z,11.22
2022-11-09T10:15:20.488Z,11.36
2022-11-09T10:18:19.847Z,11.40
2022-11-09T10:21:10.287Z,11.44
2022-11-09T10:23:57.676Z,11.53
2022-11-09T10:26:41.365Z,11.60
2022-11-09T10:29:25.128Z,11.69
2022-11-09T10:32:02.704Z,11.71
2022-11-09T10:34:54.717Z,11.72
2022-11-09T10:37:33.741Z,11.82
2022-11-09T10:40:13.589Z,11.78
2022-11-09T10:43:07.965Z,11.85
2022-11-09T10:46:05.736Z,11.85
2022-11-09T10:48:55.883Z,11.85
2022-11-09T10:51:47.538Z,11.92
2022-11-09T10:54:38.212Z,11.91
2022-11-09T10:57:27.650Z,11.88
2022-11-09T11:00:25.596Z,11.99
2022-11-09T11:03:21.957Z,11.97
2022-11-09T11:06:18.545Z,11.99
2022-11-09T11:09:22.693Z,12.05
2022-11-09T11:12:18.104Z,12.07
2022-11-09T11:15:23.927Z,12.04
2022-11-09T11:18:23.604Z,12.07
2022-11-09T11:21:18.915Z,12.05
2022-11-09T11:24:17.675Z,12.07
2022-11-09T11:27:12.540Z,12.09
2022-11-09T11:30:11.073Z,12.10
2022-11-09T11:33:15.390Z,12.11
2022-11-09T11:36:22.613Z,12.21
2022-11-09T11:39:24.778Z,12.20
2022-11-09T11:42:36.558Z,12.25
2022-11-09T11:45:40.659Z,12.23
2022-11-09T11:49:16.439Z,12.28
2022-11-09T11:52:16.826Z,12.30
2022-11-09T11:55:38.705Z,12.34
2022-11-09T11:58:49.552Z,12.36
2022-11-09T12:01:55.517Z,12.34
2022-11-09T12:05:29.601Z,12.38
2022-11-09T12:08:29.009Z,12.39
2022-11-09T12:11:36.787Z,12.41
2022-11-09T12:14:43.917Z,12.41
2022-11-09T12:17:46.040Z,12.40
2022-11-09T12:20:44.695Z,12.41
2022-11-09T12:24:08.405Z,12.44
2022-11-09T12:27:36.900Z,12.40
2022-11-09T12:30:38.913Z,12.41
2022-11-09T12:33:43.490Z,12.37
2022-11-09T12:36:41.764Z,12.40
2022-11-09T12:39:38.046Z,12.38
2022-11-09T12:42:37.575Z,12.40
2022-11-09T12:45:34.252Z,12.38
2022-11-09T12:48:26.899Z,12.38
2022-11-09T12:51:14.375Z,12.34
2022-11-09T12:54:11.432Z,12.41
2022-11-09T12:57:03.960Z,12.40
2022-11-09T12:59:55.282Z,12.41
2022-11-09T13:02:59.641Z,12.38
2022-11-09T13:05:50.029Z,12.38
2022-11-09T13:08:39.862Z,12.34
2022-11-09T13:11:48.218Z,12.35
2022-11-09T13:14:44.117Z,12.34
2022-11-09T13:18:27.761Z,12.37
2022-11-09T13:24:56.044Z,12.33
2022-11-09T13:27:46.708Z,12.29
2022-11-09T13:31:12.707Z,12.26
2022-11-09T13:34:54.845Z,12.25
2022-11-09T13:38:25.420Z,12.20
2022-11-09T13:41:44.375Z,12.23
2022-11-09T13:44:39.433Z,12.22
2022-11-09T13:47:55.938Z,12.20
2022-11-09T13:50:56.582Z,12.12
2022-11-09T13:54:05.942Z,12.15
2022-11-09T13:56:55.273Z,12.17
2022-11-09T13:59:50.363Z,12.13
2022-11-09T14:02:38.199Z,12.13
2022-11-09T14:05:30.284Z,12.08
2022-11-09T14:08:24.909Z,12.08
2022-11-09T14:12:06.275Z,12.06
2022-11-09T14:15:18.437Z,12.06
2022-11-09T14:18:28.549Z,12.03
2022-11-09T14:21:33.142Z,12.00
2022-11-09T14:24:41.050Z,11.97
2022-11-09T14:27:28.010Z,11.93
2022-11-09T14:30:25.659Z,11.95
2022-11-09T14:33:26.611Z,11.99
2022-11-09T14:36:15.261Z,11.96
2022-11-09T14:39:35.522Z,11.94
2022-11-09T14:42:25.577Z,11.96
2022-11-09T14:45:17.606Z,11.94
2022-11-09T14:48:05.474Z,11.94
2022-11-09T14:50:55.409Z,11.97
2022-11-09T14:53:44.797Z,11.94
2022-11-09T14:56:38.737Z,11.97
2022-11-09T14:59:32.351Z,11.97
2022-11-09T15:02:23.713Z,11.98
2022-11-09T15:05:33.218Z,11.99
2022-11-09T15:08:24.132Z,11.94
2022-11-09T15:11:16.199Z,11.96
2022-11-09T15:14:16.559Z,11.96
2022-11-09T15:17:16.457Z,11.92
2022-11-09T15:20:21.396Z,11.97
2022-11-09T15:23:38.934Z,11.92
2022-11-09T15:26:37.634Z,11.89
2022-11-09T15:29:42.104Z,11.93
2022-11-09T15:32:43.274Z,11.95
2022-11-09T15:35:32.166Z,12.00
2022-11-09T15:38:41.993Z,11.99
2022-11-09T15:41:30.676Z,12.01
2022-11-09T15:44:17.992Z,11.99
2022-11-09T15:47:23.368Z,11.94
2022-11-09T15:50:18.928Z,11.92
2022-11-09T15:53:06.530Z,11.95
2022-11-09T15:55:54.276Z,11.99
2022-11-09T15:58:41.676Z,11.97
2022-11-09T16:01:30.204Z,11.94
2022-11-09T16:04:19.094Z,11.95
2022-11-09T16:07:09.426Z,11.92
2022-11-09T16:09:58.661Z,11.90
2022-11-09T16:12:46.571Z,11.90
2022-11-09T16:15:35.920Z,11.88
2022-11-09T16:18:26.093Z,11.97
2022-11-09T16:21:17.816Z,11.88
2022-11-09T16:24:06.160Z,11.87
2022-11-09T16:26:55.706Z,11.85
2022-11-09T16:29:45.265Z,11.87
2022-11-09T16:32:33.354Z,11.82
2022-11-09T16:35:27.256Z,11.81
2022-11-09T16:38:17.031Z,11.81
2022-11-09T16:41:05.904Z,11.73
2022-11-09T16:43:54.829Z,11.76
2022-11-09T16:46:45.796Z,11.78
2022-11-09T16:49:33.312Z,11.74
2022-11-09T16:52:20.892Z,11.76
2022-11-09T16:55:11.118Z,11.76
2022-11-09T16:57:59.993Z,11.81
2022-11-09T17:01:09.591Z,11.78
2022-11-09T17:03:57.456Z,11.73
2022-11-09T17:06:44.892Z,11.75
2022-11-09T17:09:35.183Z,11.75
2022-11-09T17:12:23.833Z,11.76
2022-11-09T17:15:12.368Z,11.80
2022-11-09T17:18:02.722Z,11.81
2022-11-09T17:20:51.710Z,11.83
2022-11-09T17:23:39.802Z,11.82
2022-11-09T17:26:28.998Z,11.78
2022-11-09T17:29:17.939Z,11.78
2022-11-09T17:32:06.575Z,11.77
2022-11-09T17:34:54.054Z,11.70
2022-11-09T17:37:41.749Z,11.75
2022-11-09T17:40:29.552Z,11.73
2022-11-09T17:43:16.928Z,11.71
2022-11-09T17:46:08.788Z,11.73
2022-11-09T17:48:56.380Z,11.75
2022-11-09T17:51:43.544Z,11.69
2022-11-09T17:54:36.464Z,11.71
2022-11-09T17:57:27.349Z,11.69
2022-11-09T18:00:20.073Z,11.72
2022-11-09T18:03:09.182Z,11.72
2022-11-09T18:05:56.932Z,11.66
2022-11-09T18:08:45.085Z,11.71
2022-11-09T18:11:33.962Z,11.71
2022-11-09T18:14:23.131Z,11.61
2022-11-09T18:17:10.972Z,11.58
2022-11-09T18:19:59.927Z,11.62
2022-11-09T18:22:47.311Z,11.60
2022-11-09T18:25:36.018Z,11.62
2022-11-09T18:28:24.157Z,11.61
2022-11-09T18:31:15.229Z,11.58
2022-11-09T18:34:03.143Z,11.62
2022-11-09T18:36:54.058Z,11.53
2022-11-09T18:39:42.259Z,11.59
2022-11-09T18:42:29.621Z,11.50
2022-11-09T18:45:17.376Z,11.44
2022-11-09T18:48:05.677Z,11.50
2022-11-09T18:50:54.169Z,11.43
2022-11-09T18:53:45.706Z,11.46
2022-11-09T18:56:35.577Z,11.38
2022-11-09T18:59:23.519Z,11.44
2022-11-09T19:02:14.632Z,11.48
2022-11-09T19:05:05.281Z,11.43
2022-11-09T19:07:52.918Z,11.41
2022-11-09T19:10:42.155Z,11.39
2022-11-09T19:13:29.914Z,11.42
2022-11-09T19:16:19.198Z,11.43
2022-11-09T19:19:12.830Z,11.46
2022-11-09T19:22:01.253Z,11.43
2022-11-09T19:24:49.260Z,11.45
2022-11-09T19:27:42.891Z,11.38
2022-11-09T19:30:31.168Z,11.48
2022-11-09T19:33:19.136Z,11.46
2022-11-09T19:39:22.117Z,11.53
2022-11-09T19:42:13.083Z,11.51
2022-11-09T19:45:05.534Z,11.58
2022-11-09T19:47:53.637Z,11.55
2022-11-09T19:50:41.140Z,11.55
2022-11-09T19:53:31.424Z,11.53
2022-11-09T19:56:19.725Z,11.53
2022-11-09T19:59:15.794Z,11.51
2022-11-09T20:02:05.491Z,11.56
2022-11-09T20:04:54.734Z,11.58
2022-11-09T20:07:43.655Z,11.57
2022-11-09T20:10:31.507Z,11.57
2022-11-09T20:13:20.488Z,11.58
2022-11-09T20:16:11.808Z,11.59
2022-11-09T20:19:01.268Z,11.52
2022-11-09T20:21:49.869Z,11.51
2022-11-09T20:24:40.238Z,11.50
2022-11-09T20:27:32.049Z,11.50
2022-11-09T20:30:20.987Z,11.53
2022-11-09T20:33:09.859Z,11.49
2022-11-09T20:35:59.164Z,11.54
2022-11-09T20:38:47.164Z,11.47
2022-11-09T20:41:35.944Z,11.50
2022-11-09T20:44:23.369Z,11.57
2022-11-09T20:47:11.007Z,11.55
2022-11-09T20:49:58.949Z,11.54
2022-11-09T20:52:47.931Z,11.59
2022-11-09T20:55:38.513Z,11.52
2022-11-09T20:58:27.418Z,11.53
2022-11-09T21:01:19.121Z,11.48
2022-11-09T21:04:07.600Z,11.53
2022-11-09T21:06:55.539Z,11.44
2022-11-09T21:09:44.300Z,11.52
2022-11-09T21:12:32.568Z,11.55
2022-11-09T21:15:20.001Z,11.51
2022-11-09T21:18:08.843Z,11.56
2022-11-09T21:20:56.233Z,11.58
2022-11-09T21:24:01.074Z,11.52
2022-11-09T21:27:07.368Z,11.54
2022-11-09T21:29:54.416Z,11.51
2022-11-09T21:32:41.996Z,11.59
2022-11-09T21:35:34.107Z,11.62
2022-11-09T21:38:21.800Z,11.60
2022-11-09T21:41:27.876Z,11.62
2022-11-09T21:44:17.138Z,11.62
2022-11-09T21:47:05.085Z,11.59
2022-11-09T21:49:52.441Z,11.60
2022-11-09T21:52:39.829Z,11.62
2022-11-09T21:55:26.996Z,11.68
2022-11-09T21:58:13.840Z,11.71
2022-11-09T22:01:03.982Z,11.66
2022-11-09T22:03:52.477Z,11.60
2022-11-09T22:06:43.326Z,11.64
2022-11-09T22:09:50.614Z,11.62
2022-11-09T22:12:56.543Z,11.64
2022-11-09T22:16:01.585Z,11.58
2022-11-09T22:19:08.121Z,11.57
2022-11-09T22:21:55.760Z,11.61
2022-11-09T22:24:43.916Z,11.57
2022-11-09T22:27:34.004Z,11.57
2022-11-09T22:30:21.569Z,11.53
2022-11-09T22:33:08.814Z,11.50
2022-11-09T22:35:58.778Z,11.46
2022-11-09T22:38:47.326Z,11.51
2022-11-09T22:41:35.020Z,11.51
2022-11-09T22:44:22.227Z,11.50
2022-11-09T22:47:09.204Z,11.46
2022-11-09T22:49:56.584Z,11.45
2022-11-09T22:52:45.235Z,11.44
2022-11-09T22:55:33.087Z,11.35
2022-11-09T22:58:20.319Z,11.36
2022-11-09T23:01:11.690Z,11.37
2022-11-09T23:03:59.264Z,11.32
2022-11-09T23:06:46.401Z,11.26
2022-11-09T23:09:35.209Z,11.29
2022-11-09T23:12:22.652Z,11.28
2022-11-09T23:15:13.558Z,11.31
2022-11-09T23:18:18.292Z,11.26
2022-11-09T23:21:05.510Z,11.22
2022-11-09T23:23:55.057Z,11.16
2022-11-09T23:26:43.704Z,11.19
2022-11-09T23:29:31.056Z,11.09
2022-11-09T23:32:18.391Z,11.13
2022-11-09T23:35:07.163Z,11.08
2022-11-09T23:38:00.495Z,11.13
2022-11-09T23:40:48.023Z,11.11
2022-11-09T23:43:38.234Z,11.03
2022-11-09T23:46:25.708Z,11.12
2022-11-09T23:49:13.228Z,11.08
2022-11-09T23:52:00.612Z,11.11
2022-11-09T23:54:47.987Z,11.09
2022-11-09T23:57:35.560Z,11.11
